createdAt,value
2019-06-07T00:01:21.125Z,23.00
2019-06-07T00:03:48.748Z,23.00
2019-06-07T00:06:23.688Z,23.00
2019-06-07T00:08:45.490Z,23.00
2019-06-07T00:11:15.679Z,23.00
2019-06-07T00:13:42.132Z,23.00
2019-06-07T00:16:11.942Z,23.00
2019-06-07T00:18:38.846Z,23.00
2019-06-07T00:21:08.583Z,23.00
2019-06-07T00:23:35.507Z,23.00
2019-06-07T00:26:02.981Z,23.00
2019-06-07T00:28:30.441Z,23.00
2019-06-07T00:30:57.910Z,23.00
2019-06-07T00:33:25.452Z,23.00
2019-06-07T00:35:52.913Z,23.00
2019-06-07T00:38:21.870Z,23.00
2019-06-07T00:40:49.638Z,23.00
2019-06-07T00:43:22.090Z,23.00
2019-06-07T00:45:46.534Z,23.00
2019-06-07T00:48:19.662Z,23.00
2019-06-07T00:50:43.216Z,23.00
2019-06-07T00:53:15.445Z,23.00
2019-06-07T00:55:39.865Z,23.00
2019-06-07T00:58:07.338Z,23.00
2019-06-07T01:00:35.056Z,23.00
2019-06-07T01:03:02.557Z,23.00
2019-06-07T01:05:31.611Z,22.90
2019-06-07T01:07:59.233Z,23.00
2019-06-07T01:10:51.727Z,23.00
2019-06-07T01:12:55.889Z,23.00
2019-06-07T01:15:28.811Z,23.00
2019-06-07T01:18:33.231Z,22.90
2019-06-07T01:20:24.305Z,23.00
2019-06-07T01:22:51.693Z,23.00
2019-06-07T01:25:22.710Z,23.00
2019-06-07T01:27:48.403Z,23.00
2019-06-07T01:30:18.782Z,22.90
2019-06-07T01:32:46.763Z,22.90
2019-06-07T01:35:14.234Z,22.90
2019-06-07T01:37:41.749Z,22.90
2019-06-07T01:40:09.335Z,22.90
2019-06-07T01:42:36.858Z,23.00
2019-06-07T01:45:07.487Z,23.00
2019-06-07T01:47:34.947Z,22.90
2019-06-07T01:50:03.286Z,22.90
2019-06-07T01:52:30.749Z,22.90
2019-06-07T01:54:59.139Z,22.90
2019-06-07T01:57:39.725Z,22.90
2019-06-07T01:59:56.065Z,22.90
2019-06-07T02:02:28.071Z,22.90
2019-06-07T02:04:52.735Z,22.90
2019-06-07T02:07:24.077Z,22.90
2019-06-07T02:09:49.422Z,22.90
2019-06-07T02:12:31.227Z,22.90
2019-06-07T02:14:46.137Z,22.90
2019-06-07T02:17:13.607Z,22.90
2019-06-07T02:19:41.087Z,22.90
2019-06-07T02:22:08.554Z,22.90
2019-06-07T02:24:36.651Z,22.90
2019-06-07T02:27:04.361Z,22.90
2019-06-07T02:29:33.568Z,22.90
2019-06-07T02:32:01.111Z,22.90
2019-06-07T02:34:35.952Z,22.90
2019-06-07T02:36:57.870Z,22.90
2019-06-07T02:39:28.199Z,22.90
2019-06-07T02:41:54.535Z,22.90
2019-06-07T02:44:24.025Z,22.90
2019-06-07T02:46:51.205Z,22.90
2019-06-07T02:49:18.680Z,22.90
2019-06-07T02:51:46.191Z,22.90
2019-06-07T02:54:13.683Z,22.90
2019-06-07T02:56:56.665Z,22.90
2019-06-07T02:59:10.334Z,22.90
2019-06-07T03:01:41.766Z,22.90
2019-06-07T03:04:06.995Z,22.90
2019-06-07T03:06:39.506Z,22.90
2019-06-07T03:09:05.282Z,22.90
2019-06-07T03:11:36.945Z,22.90
2019-06-07T03:14:02.011Z,22.90
2019-06-07T03:16:34.618Z,22.90
2019-06-07T03:19:11.430Z,22.90
2019-06-07T03:21:41.633Z,22.80
2019-06-07T03:24:09.416Z,22.90
2019-06-07T03:27:30.365Z,22.80
2019-06-07T03:29:06.077Z,22.80
2019-06-07T03:31:41.566Z,22.80
2019-06-07T03:34:02.735Z,22.80
2019-06-07T03:36:32.019Z,22.80
2019-06-07T03:38:59.650Z,22.80
2019-06-07T03:41:29.271Z,22.90
2019-06-07T03:43:56.391Z,22.80
2019-06-07T03:46:23.858Z,22.80
2019-06-07T03:48:51.321Z,22.80
2019-06-07T03:51:25.097Z,22.80
2019-06-07T03:53:48.240Z,22.80
2019-06-07T03:56:16.113Z,22.80
2019-06-07T03:58:49.545Z,22.80
2019-06-07T04:01:12.931Z,22.80
2019-06-07T04:03:50.682Z,22.80
2019-06-07T04:06:09.621Z,22.80
2019-06-07T04:08:41.102Z,22.80
2019-06-07T04:11:06.302Z,22.80
2019-06-07T04:13:34.796Z,22.80
2019-06-07T04:16:04.649Z,22.80
2019-06-07T04:18:33.060Z,22.80
2019-06-07T04:21:01.214Z,22.80
2019-06-07T04:23:31.747Z,22.50
2019-06-07T04:25:57.917Z,22.20
2019-06-07T04:29:16.560Z,21.90
2019-06-07T04:30:54.677Z,21.70
2019-06-07T04:33:22.170Z,21.60
2019-06-07T04:35:49.686Z,21.40
2019-06-07T04:38:17.163Z,21.30
2019-06-07T04:40:44.826Z,21.20
2019-06-07T04:43:12.507Z,21.10
2019-06-07T04:45:46.615Z,21.00
2019-06-07T04:48:09.252Z,20.80
2019-06-07T04:50:40.430Z,20.70
2019-06-07T04:53:06.805Z,20.70
2019-06-07T04:55:36.608Z,20.50
2019-06-07T04:58:03.468Z,20.50
2019-06-07T05:00:55.633Z,20.50
2019-06-07T05:03:02.496Z,20.40
2019-06-07T05:05:31.742Z,20.30
2019-06-07T05:08:07.160Z,20.20
2019-06-07T05:10:30.669Z,20.20
2019-06-07T05:12:58.251Z,20.20
2019-06-07T05:15:25.986Z,20.20
2019-06-07T05:17:53.470Z,20.20
2019-06-07T05:20:20.935Z,20.20
2019-06-07T05:22:48.406Z,20.10
2019-06-07T05:25:15.872Z,20.20
2019-06-07T05:27:46.713Z,20.10
2019-06-07T05:30:50.400Z,20.10
2019-06-07T05:32:45.853Z,20.10
2019-06-07T05:35:13.226Z,20.10
2019-06-07T05:37:45.171Z,20.10
2019-06-07T05:40:09.923Z,20.10
2019-06-07T05:42:41.137Z,20.00
2019-06-07T05:45:06.607Z,20.00
2019-06-07T05:47:39.983Z,20.00
2019-06-07T05:50:04.750Z,20.00
2019-06-07T05:52:33.291Z,20.00
2019-06-07T05:55:01.638Z,20.00
2019-06-07T05:57:29.219Z,20.00
2019-06-07T05:59:56.681Z,20.00
2019-06-07T06:02:25.067Z,20.00
2019-06-07T06:04:52.764Z,20.00
2019-06-07T06:07:20.253Z,20.00
2019-06-07T06:09:47.817Z,19.90
2019-06-07T06:12:33.608Z,19.90
2019-06-07T06:14:46.887Z,19.90
2019-06-07T06:17:13.752Z,19.90
2019-06-07T06:19:47.385Z,19.90
2019-06-07T06:22:11.786Z,20.00
2019-06-07T06:24:40.022Z,20.20
2019-06-07T06:27:28.503Z,20.30
2019-06-07T06:29:39.919Z,20.50
2019-06-07T06:34:41.398Z,20.80
2019-06-07T06:37:05.204Z,20.90
2019-06-07T06:39:32.676Z,21.00
2019-06-07T06:42:03.747Z,21.10
2019-06-07T06:44:29.319Z,21.20
2019-06-07T06:46:58.094Z,21.30
2019-06-07T06:49:26.192Z,21.40
2019-06-07T06:51:54.013Z,21.40
2019-06-07T06:54:39.486Z,21.50
2019-06-07T06:56:52.703Z,21.50
2019-06-07T06:59:37.919Z,21.50
2019-06-07T07:01:52.446Z,21.60
2019-06-07T07:04:19.141Z,21.60
2019-06-07T07:06:48.015Z,21.70
2019-06-07T07:09:15.606Z,21.70
2019-06-07T07:11:55.229Z,21.70
2019-06-07T07:14:13.051Z,21.70
2019-06-07T07:16:42.172Z,21.70
2019-06-07T07:19:09.863Z,21.80
2019-06-07T07:21:37.328Z,21.80
2019-06-07T07:24:20.073Z,21.80
2019-06-07T07:26:34.010Z,21.80
2019-06-07T07:29:01.585Z,21.80
2019-06-07T07:31:29.049Z,21.80
2019-06-07T07:34:28.358Z,21.80
2019-06-07T07:36:38.829Z,21.90
2019-06-07T07:39:00.523Z,21.90
2019-06-07T07:41:24.099Z,21.90
2019-06-07T07:44:00.583Z,21.90
2019-06-07T07:46:28.984Z,21.90
2019-06-07T07:48:53.018Z,21.90
2019-06-07T07:51:19.257Z,22.00
2019-06-07T07:53:56.012Z,21.90
2019-06-07T07:56:16.320Z,22.00
2019-06-07T07:58:48.686Z,22.00
2019-06-07T08:01:13.194Z,22.00
2019-06-07T08:03:40.757Z,22.00
2019-06-07T08:06:08.291Z,22.00
2019-06-07T08:08:35.854Z,22.00
2019-06-07T08:11:03.380Z,22.00
2019-06-07T08:13:30.947Z,22.00
2019-06-07T08:16:00.375Z,22.00
2019-06-07T08:18:27.733Z,22.10
2019-06-07T08:21:20.512Z,22.10
2019-06-07T08:23:24.496Z,22.00
2019-06-07T08:25:56.356Z,22.00
2019-06-07T08:28:21.264Z,22.00
2019-06-07T08:30:55.040Z,22.00
2019-06-07T08:33:26.794Z,22.10
2019-06-07T08:36:11.839Z,22.10
2019-06-07T08:38:29.712Z,22.10
2019-06-07T08:40:46.050Z,22.00
2019-06-07T08:43:20.810Z,22.10
2019-06-07T08:45:43.047Z,22.10
2019-06-07T08:48:27.105Z,22.10
2019-06-07T08:50:39.701Z,22.10
2019-06-07T08:53:12.053Z,22.10
2019-06-07T08:55:36.373Z,22.10
2019-06-07T08:58:08.413Z,22.10
2019-06-07T09:00:48.340Z,22.10
2019-06-07T09:03:05.054Z,22.10
2019-06-07T09:05:31.418Z,22.10
2019-06-07T09:08:22.308Z,22.10
2019-06-07T09:10:28.107Z,22.10
2019-06-07T09:13:00.388Z,22.10
2019-06-07T09:15:24.966Z,22.10
2019-06-07T09:20:36.268Z,22.10
2019-06-07T09:22:50.881Z,22.10
2019-06-07T09:25:21.901Z,22.20
2019-06-07T09:27:47.581Z,22.20
2019-06-07T09:30:19.020Z,22.20
2019-06-07T09:32:45.867Z,22.20
2019-06-07T09:35:17.649Z,22.20
2019-06-07T09:40:24.118Z,22.20
2019-06-07T09:42:40.941Z,22.20
2019-06-07T09:45:12.139Z,22.20
2019-06-07T09:47:37.598Z,22.20
2019-06-07T09:50:09.787Z,22.20
2019-06-07T09:52:56.558Z,22.20
2019-06-07T09:55:22.219Z,22.20
2019-06-07T09:57:34.255Z,22.20
2019-06-07T10:00:20.859Z,22.20
2019-06-07T10:02:30.951Z,22.20
2019-06-07T10:05:01.232Z,22.20
2019-06-07T10:07:31.593Z,22.20
2019-06-07T10:10:19.847Z,22.20
2019-06-07T10:12:26.003Z,22.20
2019-06-07T10:14:53.470Z,22.20
2019-06-07T10:17:21.294Z,22.20
